sensor_id;sensor_type;location;lat;lon;timestamp;P1;durP1;ratioP1;P2;durP2;ratioP2
4744;SDS011;2386;42.138;24.746;2023-06-24T00:02:19;12.73;;;8.40;;
4744;SDS011;2386;42.138;24.746;2023-06-24T00:04:45;19.00;;;9.00;;
4744;SDS011;2386;42.138;24.746;2023-06-24T00:07:11;19.37;;;9.67;;
4744;SDS011;2386;42.138;24.746;2023-06-24T00:09:36;17.70;;;8.83;;
4744;SDS011;2386;42.138;24.746;2023-06-24T00:12:02;16.73;;;9.57;;
4744;SDS011;2386;42.138;24.746;2023-06-24T00:14:28;28.33;;;9.43;;
4744;SDS011;2386;42.138;24.746;2023-06-24T00:16:54;16.57;;;8.60;;
4744;SDS011;2386;42.138;24.746;2023-06-24T00:22:43;18.60;;;9.17;;
4744;SDS011;2386;42.138;24.746;2023-06-24T00:25:14;24.27;;;10.00;;
4744;SDS011;2386;42.138;24.746;2023-06-24T00:27:40;15.67;;;8.40;;
4744;SDS011;2386;42.138;24.746;2023-06-24T00:30:07;25.63;;;10.17;;
4744;SDS011;2386;42.138;24.746;2023-06-24T00:32:33;19.80;;;8.87;;
4744;SDS011;2386;42.138;24.746;2023-06-24T00:34:58;17.90;;;9.47;;
4744;SDS011;2386;42.138;24.746;2023-06-24T00:37:25;14.80;;;8.80;;
4744;SDS011;2386;42.138;24.746;2023-06-24T00:39:50;19.23;;;9.40;;
4744;SDS011;2386;42.138;24.746;2023-06-24T00:42:16;23.97;;;9.73;;
4744;SDS011;2386;42.138;24.746;2023-06-24T00:44:42;16.50;;;8.77;;
4744;SDS011;2386;42.138;24.746;2023-06-24T00:47:07;19.00;;;9.13;;
4744;SDS011;2386;42.138;24.746;2023-06-24T00:49:33;19.23;;;9.87;;
4744;SDS011;2386;42.138;24.746;2023-06-24T00:51:59;24.70;;;9.20;;
4744;SDS011;2386;42.138;24.746;2023-06-24T00:57:49;19.77;;;9.87;;
4744;SDS011;2386;42.138;24.746;2023-06-24T01:00:18;17.57;;;9.37;;
4744;SDS011;2386;42.138;24.746;2023-06-24T01:02:46;24.10;;;9.27;;
4744;SDS011;2386;42.138;24.746;2023-06-24T01:05:12;17.80;;;8.70;;
4744;SDS011;2386;42.138;24.746;2023-06-24T01:07:39;14.47;;;8.50;;
4744;SDS011;2386;42.138;24.746;2023-06-24T01:13:27;14.20;;;8.47;;
4744;SDS011;2386;42.138;24.746;2023-06-24T01:15:53;25.23;;;8.90;;
4744;SDS011;2386;42.138;24.746;2023-06-24T01:18:21;14.13;;;7.70;;
4744;SDS011;2386;42.138;24.746;2023-06-24T01:21:08;29.67;;;9.03;;
4744;SDS011;2386;42.138;24.746;2023-06-24T01:36:57;13.40;;;7.50;;
4744;SDS011;2386;42.138;24.746;2023-06-24T01:39:33;14.43;;;7.60;;
4744;SDS011;2386;42.138;24.746;2023-06-24T01:42:10;19.50;;;8.07;;
4744;SDS011;2386;42.138;24.746;2023-06-24T01:44:37;15.07;;;8.33;;
4744;SDS011;2386;42.138;24.746;2023-06-24T01:47:05;14.33;;;8.50;;
4744;SDS011;2386;42.138;24.746;2023-06-24T01:49:32;26.77;;;8.27;;
4744;SDS011;2386;42.138;24.746;2023-06-24T01:51:58;14.10;;;7.50;;
4744;SDS011;2386;42.138;24.746;2023-06-24T01:54:26;13.13;;;7.63;;
4744;SDS011;2386;42.138;24.746;2023-06-24T01:56:54;17.80;;;8.40;;
4744;SDS011;2386;42.138;24.746;2023-06-24T01:59:22;22.03;;;8.87;;
4744;SDS011;2386;42.138;24.746;2023-06-24T02:01:48;17.33;;;9.30;;
4744;SDS011;2386;42.138;24.746;2023-06-24T02:04:16;13.53;;;7.77;;
4744;SDS011;2386;42.138;24.746;2023-06-24T02:06:43;21.30;;;8.33;;
4744;SDS011;2386;42.138;24.746;2023-06-24T02:09:11;26.57;;;8.90;;
4744;SDS011;2386;42.138;24.746;2023-06-24T02:11:38;23.63;;;9.93;;
4744;SDS011;2386;42.138;24.746;2023-06-24T02:14:05;14.80;;;8.30;;
4744;SDS011;2386;42.138;24.746;2023-06-24T02:16:32;15.17;;;8.60;;
4744;SDS011;2386;42.138;24.746;2023-06-24T02:19:00;17.83;;;9.33;;
4744;SDS011;2386;42.138;24.746;2023-06-24T02:21:27;22.10;;;9.90;;
4744;SDS011;2386;42.138;24.746;2023-06-24T02:23:54;17.33;;;8.93;;
4744;SDS011;2386;42.138;24.746;2023-06-24T02:26:20;17.10;;;8.50;;
4744;SDS011;2386;42.138;24.746;2023-06-24T02:28:47;19.07;;;8.83;;
4744;SDS011;2386;42.138;24.746;2023-06-24T02:31:14;20.67;;;9.13;;
4744;SDS011;2386;42.138;24.746;2023-06-24T02:33:40;17.03;;;8.87;;
4744;SDS011;2386;42.138;24.746;2023-06-24T02:36:06;19.63;;;9.30;;
4744;SDS011;2386;42.138;24.746;2023-06-24T02:38:31;18.67;;;8.53;;
4744;SDS011;2386;42.138;24.746;2023-06-24T02:40:57;16.20;;;8.20;;
4744;SDS011;2386;42.138;24.746;2023-06-24T02:43:23;12.73;;;8.27;;
4744;SDS011;2386;42.138;24.746;2023-06-24T02:45:48;18.67;;;7.97;;
4744;SDS011;2386;42.138;24.746;2023-06-24T02:48:15;16.13;;;8.27;;
4744;SDS011;2386;42.138;24.746;2023-06-24T02:50:43;15.10;;;8.50;;
4744;SDS011;2386;42.138;24.746;2023-06-24T02:53:12;21.80;;;8.53;;
4744;SDS011;2386;42.138;24.746;2023-06-24T02:55:40;19.27;;;8.90;;
4744;SDS011;2386;42.138;24.746;2023-06-24T02:58:06;14.30;;;8.57;;
4744;SDS011;2386;42.138;24.746;2023-06-24T03:00:36;11.37;;;7.40;;
4744;SDS011;2386;42.138;24.746;2023-06-24T03:03:02;21.90;;;9.10;;
4744;SDS011;2386;42.138;24.746;2023-06-24T03:05:29;16.77;;;8.70;;
4744;SDS011;2386;42.138;24.746;2023-06-24T03:07:56;22.07;;;8.87;;
4744;SDS011;2386;42.138;24.746;2023-06-24T03:10:23;17.33;;;9.10;;
4744;SDS011;2386;42.138;24.746;2023-06-24T03:12:49;21.27;;;8.87;;
4744;SDS011;2386;42.138;24.746;2023-06-24T03:15:15;17.17;;;8.10;;
4744;SDS011;2386;42.138;24.746;2023-06-24T03:17:40;18.33;;;8.63;;
4744;SDS011;2386;42.138;24.746;2023-06-24T03:20:06;29.87;;;8.30;;
4744;SDS011;2386;42.138;24.746;2023-06-24T03:22:32;20.93;;;8.37;;
4744;SDS011;2386;42.138;24.746;2023-06-24T03:24:58;17.87;;;9.43;;
4744;SDS011;2386;42.138;24.746;2023-06-24T03:27:24;21.97;;;9.10;;
4744;SDS011;2386;42.138;24.746;2023-06-24T03:29:49;25.10;;;9.80;;
4744;SDS011;2386;42.138;24.746;2023-06-24T03:32:14;20.90;;;9.10;;
4744;SDS011;2386;42.138;24.746;2023-06-24T03:34:40;11.90;;;8.63;;
4744;SDS011;2386;42.138;24.746;2023-06-24T03:37:05;12.10;;;7.03;;
4744;SDS011;2386;42.138;24.746;2023-06-24T03:39:31;18.83;;;9.20;;
4744;SDS011;2386;42.138;24.746;2023-06-24T03:41:56;18.43;;;9.60;;
4744;SDS011;2386;42.138;24.746;2023-06-24T03:47:43;24.57;;;9.07;;
4744;SDS011;2386;42.138;24.746;2023-06-24T03:50:09;12.73;;;8.30;;
4744;SDS011;2386;42.138;24.746;2023-06-24T03:52:35;20.27;;;9.53;;
4744;SDS011;2386;42.138;24.746;2023-06-24T03:55:00;20.33;;;9.00;;
4744;SDS011;2386;42.138;24.746;2023-06-24T03:57:27;22.50;;;9.07;;
4744;SDS011;2386;42.138;24.746;2023-06-24T03:59:53;17.17;;;8.50;;
4744;SDS011;2386;42.138;24.746;2023-06-24T04:02:18;21.53;;;9.60;;
4744;SDS011;2386;42.138;24.746;2023-06-24T04:04:44;16.30;;;8.40;;
4744;SDS011;2386;42.138;24.746;2023-06-24T04:07:10;17.43;;;8.70;;
4744;SDS011;2386;42.138;24.746;2023-06-24T04:09:35;16.30;;;8.93;;
4744;SDS011;2386;42.138;24.746;2023-06-24T04:12:01;16.03;;;8.20;;
4744;SDS011;2386;42.138;24.746;2023-06-24T04:17:42;25.57;;;9.47;;
4744;SDS011;2386;42.138;24.746;2023-06-24T04:20:08;23.90;;;9.63;;
4744;SDS011;2386;42.138;24.746;2023-06-24T04:22:34;28.33;;;10.60;;
4744;SDS011;2386;42.138;24.746;2023-06-24T04:25:01;19.27;;;8.10;;
4744;SDS011;2386;42.138;24.746;2023-06-24T04:27:26;21.53;;;8.20;;
4744;SDS011;2386;42.138;24.746;2023-06-24T04:29:52;22.33;;;8.70;;
4744;SDS011;2386;42.138;24.746;2023-06-24T04:32:17;18.20;;;9.40;;
4744;SDS011;2386;42.138;24.746;2023-06-24T04:34:42;18.90;;;9.10;;
4744;SDS011;2386;42.138;24.746;2023-06-24T04:37:08;14.87;;;8.73;;
4744;SDS011;2386;42.138;24.746;2023-06-24T04:42:55;17.57;;;8.33;;
4744;SDS011;2386;42.138;24.746;2023-06-24T04:45:21;25.67;;;9.43;;
4744;SDS011;2386;42.138;24.746;2023-06-24T04:47:46;13.03;;;7.97;;
4744;SDS011;2386;42.138;24.746;2023-06-24T04:50:12;16.33;;;8.13;;
4744;SDS011;2386;42.138;24.746;2023-06-24T04:52:38;27.10;;;9.30;;
4744;SDS011;2386;42.138;24.746;2023-06-24T04:55:04;19.47;;;8.50;;
4744;SDS011;2386;42.138;24.746;2023-06-24T04:57:30;17.57;;;9.10;;
4744;SDS011;2386;42.138;24.746;2023-06-24T04:59:57;17.40;;;9.30;;
4744;SDS011;2386;42.138;24.746;2023-06-24T05:02:23;23.30;;;9.67;;
4744;SDS011;2386;42.138;24.746;2023-06-24T05:08:10;17.47;;;8.93;;
4744;SDS011;2386;42.138;24.746;2023-06-24T05:10:35;19.87;;;9.77;;
4744;SDS011;2386;42.138;24.746;2023-06-24T05:13:01;21.23;;;9.27;;
4744;SDS011;2386;42.138;24.746;2023-06-24T05:15:26;26.17;;;9.80;;
4744;SDS011;2386;42.138;24.746;2023-06-24T05:17:52;34.40;;;10.37;;
4744;SDS011;2386;42.138;24.746;2023-06-24T05:20:17;24.27;;;9.23;;
4744;SDS011;2386;42.138;24.746;2023-06-24T05:22:43;26.10;;;10.27;;
4744;SDS011;2386;42.138;24.746;2023-06-24T05:25:08;25.13;;;8.97;;
4744;SDS011;2386;42.138;24.746;2023-06-24T05:27:34;14.83;;;8.50;;
4744;SDS011;2386;42.138;24.746;2023-06-24T05:29:59;23.17;;;9.90;;
4744;SDS011;2386;42.138;24.746;2023-06-24T05:32:25;16.20;;;8.73;;
4744;SDS011;2386;42.138;24.746;2023-06-24T05:34:50;32.93;;;9.97;;
4744;SDS011;2386;42.138;24.746;2023-06-24T05:37:16;22.00;;;9.03;;
4744;SDS011;2386;42.138;24.746;2023-06-24T05:39:41;19.27;;;9.03;;
4744;SDS011;2386;42.138;24.746;2023-06-24T05:42:07;17.97;;;8.30;;
4744;SDS011;2386;42.138;24.746;2023-06-24T05:44:32;20.20;;;10.17;;
4744;SDS011;2386;42.138;24.746;2023-06-24T05:46:58;21.87;;;10.13;;
4744;SDS011;2386;42.138;24.746;2023-06-24T05:49:24;25.90;;;10.27;;
4744;SDS011;2386;42.138;24.746;2023-06-24T05:51:49;19.47;;;10.30;;
4744;SDS011;2386;42.138;24.746;2023-06-24T05:54:15;17.37;;;9.23;;
4744;SDS011;2386;42.138;24.746;2023-06-24T05:56:40;22.27;;;10.70;;
4744;SDS011;2386;42.138;24.746;2023-06-24T05:59:06;18.10;;;10.03;;
4744;SDS011;2386;42.138;24.746;2023-06-24T06:01:31;18.87;;;10.90;;
4744;SDS011;2386;42.138;24.746;2023-06-24T06:03:57;21.40;;;10.67;;
4744;SDS011;2386;42.138;24.746;2023-06-24T06:06:22;21.40;;;10.47;;
4744;SDS011;2386;42.138;24.746;2023-06-24T06:08:48;29.10;;;10.90;;
4744;SDS011;2386;42.138;24.746;2023-06-24T06:11:13;28.47;;;10.93;;
4744;SDS011;2386;42.138;24.746;2023-06-24T06:17:14;20.00;;;10.80;;
4744;SDS011;2386;42.138;24.746;2023-06-24T06:19:39;20.03;;;11.10;;
4744;SDS011;2386;42.138;24.746;2023-06-24T06:22:06;25.33;;;11.20;;
4744;SDS011;2386;42.138;24.746;2023-06-24T06:27:56;19.47;;;11.80;;
4744;SDS011;2386;42.138;24.746;2023-06-24T06:30:23;22.07;;;12.20;;
4744;SDS011;2386;42.138;24.746;2023-06-24T06:32:48;23.40;;;12.47;;
4744;SDS011;2386;42.138;24.746;2023-06-24T06:38:35;31.63;;;14.17;;
4744;SDS011;2386;42.138;24.746;2023-06-24T06:41:00;29.00;;;14.23;;
4744;SDS011;2386;42.138;24.746;2023-06-24T06:43:33;38.23;;;14.40;;
4744;SDS011;2386;42.138;24.746;2023-06-24T06:45:59;24.80;;;13.90;;
4744;SDS011;2386;42.138;24.746;2023-06-24T06:48:30;22.50;;;13.73;;
4744;SDS011;2386;42.138;24.746;2023-06-24T06:51:06;33.57;;;13.70;;
4744;SDS011;2386;42.138;24.746;2023-06-24T06:53:34;29.07;;;11.93;;
4744;SDS011;2386;42.138;24.746;2023-06-24T06:56:02;28.73;;;12.97;;
4744;SDS011;2386;42.138;24.746;2023-06-24T06:58:28;30.33;;;13.53;;
4744;SDS011;2386;42.138;24.746;2023-06-24T07:00:53;17.00;;;10.70;;
4744;SDS011;2386;42.138;24.746;2023-06-24T07:03:19;26.73;;;12.37;;
4744;SDS011;2386;42.138;24.746;2023-06-24T07:05:44;28.60;;;12.83;;
4744;SDS011;2386;42.138;24.746;2023-06-24T07:08:13;27.03;;;12.87;;
4744;SDS011;2386;42.138;24.746;2023-06-24T07:10:39;20.07;;;11.33;;
4744;SDS011;2386;42.138;24.746;2023-06-24T07:13:04;32.97;;;13.03;;
4744;SDS011;2386;42.138;24.746;2023-06-24T07:15:30;18.17;;;11.73;;
4744;SDS011;2386;42.138;24.746;2023-06-24T07:17:55;42.60;;;14.73;;
4744;SDS011;2386;42.138;24.746;2023-06-24T07:20:21;33.83;;;13.33;;
4744;SDS011;2386;42.138;24.746;2023-06-24T07:22:46;22.20;;;10.60;;
4744;SDS011;2386;42.138;24.746;2023-06-24T07:25:12;25.23;;;11.33;;
4744;SDS011;2386;42.138;24.746;2023-06-24T07:27:37;27.10;;;12.10;;
4744;SDS011;2386;42.138;24.746;2023-06-24T07:33:25;24.43;;;11.30;;
4744;SDS011;2386;42.138;24.746;2023-06-24T07:35:50;31.97;;;11.00;;
4744;SDS011;2386;42.138;24.746;2023-06-24T07:38:16;44.57;;;12.53;;
4744;SDS011;2386;42.138;24.746;2023-06-24T07:40:42;32.87;;;12.03;;
4744;SDS011;2386;42.138;24.746;2023-06-24T07:43:07;23.13;;;11.27;;
4744;SDS011;2386;42.138;24.746;2023-06-24T07:48:55;41.53;;;11.67;;
4744;SDS011;2386;42.138;24.746;2023-06-24T07:51:21;16.43;;;9.47;;
4744;SDS011;2386;42.138;24.746;2023-06-24T07:53:47;21.20;;;11.10;;
4744;SDS011;2386;42.138;24.746;2023-06-24T07:56:13;23.60;;;11.40;;
4744;SDS011;2386;42.138;24.746;2023-06-24T07:58:40;29.73;;;12.17;;
4744;SDS011;2386;42.138;24.746;2023-06-24T08:01:05;28.53;;;12.13;;
4744;SDS011;2386;42.138;24.746;2023-06-24T08:03:31;37.60;;;13.30;;
4744;SDS011;2386;42.138;24.746;2023-06-24T08:05:57;23.17;;;10.27;;
4744;SDS011;2386;42.138;24.746;2023-06-24T08:08:22;23.73;;;9.97;;
4744;SDS011;2386;42.138;24.746;2023-06-24T08:10:47;29.13;;;11.50;;
4744;SDS011;2386;42.138;24.746;2023-06-24T08:13:13;30.57;;;11.40;;
4744;SDS011;2386;42.138;24.746;2023-06-24T08:15:41;19.93;;;9.80;;
4744;SDS011;2386;42.138;24.746;2023-06-24T08:18:10;13.80;;;9.53;;
4744;SDS011;2386;42.138;24.746;2023-06-24T08:20:35;18.27;;;10.33;;
4744;SDS011;2386;42.138;24.746;2023-06-24T08:23:02;24.00;;;10.80;;
4744;SDS011;2386;42.138;24.746;2023-06-24T08:25:28;30.67;;;10.40;;
4744;SDS011;2386;42.138;24.746;2023-06-24T08:27:53;17.80;;;9.33;;
4744;SDS011;2386;42.138;24.746;2023-06-24T08:30:19;28.97;;;10.77;;
4744;SDS011;2386;42.138;24.746;2023-06-24T08:32:48;20.17;;;10.27;;
4744;SDS011;2386;42.138;24.746;2023-06-24T08:35:14;34.50;;;12.00;;
4744;SDS011;2386;42.138;24.746;2023-06-24T08:37:46;12.97;;;8.73;;
4744;SDS011;2386;42.138;24.746;2023-06-24T08:40:12;33.20;;;11.27;;
4744;SDS011;2386;42.138;24.746;2023-06-24T08:42:38;45.30;;;12.30;;
4744;SDS011;2386;42.138;24.746;2023-06-24T08:45:06;23.23;;;10.23;;
4744;SDS011;2386;42.138;24.746;2023-06-24T08:47:32;22.03;;;10.80;;
4744;SDS011;2386;42.138;24.746;2023-06-24T08:50:04;24.37;;;10.57;;
4744;SDS011;2386;42.138;24.746;2023-06-24T08:52:35;19.13;;;9.53;;
4744;SDS011;2386;42.138;24.746;2023-06-24T08:55:12;18.10;;;9.70;;
4744;SDS011;2386;42.138;24.746;2023-06-24T09:04:36;47.50;;;12.23;;
4744;SDS011;2386;42.138;24.746;2023-06-24T09:07:05;17.57;;;9.80;;
4744;SDS011;2386;42.138;24.746;2023-06-24T09:09:44;17.60;;;10.07;;
4744;SDS011;2386;42.138;24.746;2023-06-24T09:12:55;29.13;;;10.80;;
4744;SDS011;2386;42.138;24.746;2023-06-24T09:15:20;22.57;;;10.67;;
4744;SDS011;2386;42.138;24.746;2023-06-24T09:17:45;17.70;;;9.57;;
4744;SDS011;2386;42.138;24.746;2023-06-24T09:20:11;24.37;;;10.37;;
4744;SDS011;2386;42.138;24.746;2023-06-24T09:22:44;24.53;;;10.40;;
4744;SDS011;2386;42.138;24.746;2023-06-24T09:25:09;20.13;;;10.63;;
4744;SDS011;2386;42.138;24.746;2023-06-24T09:27:46;30.10;;;11.30;;
4744;SDS011;2386;42.138;24.746;2023-06-24T09:30:34;20.07;;;9.83;;
4744;SDS011;2386;42.138;24.746;2023-06-24T09:32:59;25.43;;;10.30;;
4744;SDS011;2386;42.138;24.746;2023-06-24T09:35:37;19.80;;;10.10;;
4744;SDS011;2386;42.138;24.746;2023-06-24T09:38:02;26.60;;;11.67;;
4744;SDS011;2386;42.138;24.746;2023-06-24T09:40:28;20.13;;;9.90;;
4744;SDS011;2386;42.138;24.746;2023-06-24T09:42:57;20.57;;;10.57;;
4744;SDS011;2386;42.138;24.746;2023-06-24T09:45:26;14.63;;;8.83;;
4744;SDS011;2386;42.138;24.746;2023-06-24T09:47:55;32.30;;;10.90;;
4744;SDS011;2386;42.138;24.746;2023-06-24T09:50:22;21.00;;;9.70;;
4744;SDS011;2386;42.138;24.746;2023-06-24T09:52:49;15.50;;;8.90;;
4744;SDS011;2386;42.138;24.746;2023-06-24T09:55:16;13.60;;;8.77;;
4744;SDS011;2386;42.138;24.746;2023-06-24T09:57:44;24.13;;;13.10;;
4744;SDS011;2386;42.138;24.746;2023-06-24T10:00:14;24.30;;;12.43;;
4744;SDS011;2386;42.138;24.746;2023-06-24T10:02:41;74.73;;;47.20;;
4744;SDS011;2386;42.138;24.746;2023-06-24T10:05:07;26.47;;;11.93;;
4744;SDS011;2386;42.138;24.746;2023-06-24T10:07:34;12.20;;;8.70;;
4744;SDS011;2386;42.138;24.746;2023-06-24T10:10:14;16.57;;;8.83;;
4744;SDS011;2386;42.138;24.746;2023-06-24T10:12:40;27.13;;;10.40;;
4744;SDS011;2386;42.138;24.746;2023-06-24T10:15:06;24.20;;;10.80;;
4744;SDS011;2386;42.138;24.746;2023-06-24T10:17:37;47.90;;;13.53;;
4744;SDS011;2386;42.138;24.746;2023-06-24T10:20:08;22.03;;;9.40;;
4744;SDS011;2386;42.138;24.746;2023-06-24T10:22:35;14.37;;;8.60;;
4744;SDS011;2386;42.138;24.746;2023-06-24T10:28:24;36.83;;;22.93;;
4744;SDS011;2386;42.138;24.746;2023-06-24T10:31:12;31.73;;;14.67;;
4744;SDS011;2386;42.138;24.746;2023-06-24T10:33:38;26.57;;;17.93;;
4744;SDS011;2386;42.138;24.746;2023-06-24T10:36:03;27.20;;;18.87;;
4744;SDS011;2386;42.138;24.746;2023-06-24T10:38:29;24.63;;;10.93;;
4744;SDS011;2386;42.138;24.746;2023-06-24T10:40:54;16.53;;;9.83;;
4744;SDS011;2386;42.138;24.746;2023-06-24T10:46:07;26.50;;;12.67;;
4744;SDS011;2386;42.138;24.746;2023-06-24T10:48:42;23.07;;;11.77;;
4744;SDS011;2386;42.138;24.746;2023-06-24T10:51:07;24.70;;;15.17;;
4744;SDS011;2386;42.138;24.746;2023-06-24T10:53:39;60.53;;;55.73;;
4744;SDS011;2386;42.138;24.746;2023-06-24T10:56:05;505.60;;;467.03;;
4744;SDS011;2386;42.138;24.746;2023-06-24T10:58:31;28.23;;;11.83;;
4744;SDS011;2386;42.138;24.746;2023-06-24T11:01:07;17.90;;;9.63;;
4744;SDS011;2386;42.138;24.746;2023-06-24T11:23:45;23.63;;;11.30;;
4744;SDS011;2386;42.138;24.746;2023-06-24T11:26:24;26.40;;;10.77;;
4744;SDS011;2386;42.138;24.746;2023-06-24T11:29:36;16.87;;;10.57;;
4744;SDS011;2386;42.138;24.746;2023-06-24T11:32:02;14.57;;;10.07;;
4744;SDS011;2386;42.138;24.746;2023-06-24T11:34:49;25.17;;;11.67;;
4744;SDS011;2386;42.138;24.746;2023-06-24T11:37:50;26.70;;;17.23;;
4744;SDS011;2386;42.138;24.746;2023-06-24T11:40:22;692.87;;;629.90;;
4744;SDS011;2386;42.138;24.746;2023-06-24T11:47:10;20.33;;;10.53;;
4744;SDS011;2386;42.138;24.746;2023-06-24T11:49:52;23.63;;;11.20;;
4744;SDS011;2386;42.138;24.746;2023-06-24T11:52:32;17.13;;;10.87;;
4744;SDS011;2386;42.138;24.746;2023-06-24T11:58:58;54.70;;;48.67;;
4744;SDS011;2386;42.138;24.746;2023-06-24T12:02:32;19.95;;;9.05;;
4744;SDS011;2386;42.138;24.746;2023-06-24T12:05:12;12.05;;;7.55;;
4744;SDS011;2386;42.138;24.746;2023-06-24T12:08:28;34.67;;;11.70;;
4744;SDS011;2386;42.138;24.746;2023-06-24T12:10:58;10.00;;;9.00;;
4744;SDS011;2386;42.138;24.746;2023-06-24T12:13:26;16.00;;;9.20;;
4744;SDS011;2386;42.138;24.746;2023-06-24T12:19:19;9.32;;;8.18;;
4744;SDS011;2386;42.138;24.746;2023-06-24T13:26:51;550.30;;;498.07;;
4744;SDS011;2386;42.138;24.746;2023-06-24T13:29:17;646.07;;;588.73;;
4744;SDS011;2386;42.138;24.746;2023-06-24T13:31:44;638.20;;;581.97;;
4744;SDS011;2386;42.138;24.746;2023-06-24T13:37:31;644.60;;;586.93;;
4744;SDS011;2386;42.138;24.746;2023-06-24T13:39:57;663.83;;;604.83;;
4744;SDS011;2386;42.138;24.746;2023-06-24T13:42:22;660.20;;;600.10;;
4744;SDS011;2386;42.138;24.746;2023-06-24T13:48:09;802.13;;;735.03;;
4744;SDS011;2386;42.138;24.746;2023-06-24T13:50:35;806.37;;;738.97;;
4744;SDS011;2386;42.138;24.746;2023-06-24T13:53:00;808.23;;;740.10;;
4744;SDS011;2386;42.138;24.746;2023-06-24T13:55:26;819.03;;;749.97;;
4744;SDS011;2386;42.138;24.746;2023-06-24T13:57:51;819.13;;;749.47;;
4744;SDS011;2386;42.138;24.746;2023-06-24T14:00:16;809.97;;;739.97;;
4744;SDS011;2386;42.138;24.746;2023-06-24T14:02:42;820.37;;;749.63;;
4744;SDS011;2386;42.138;24.746;2023-06-24T14:05:08;819.37;;;748.47;;
4744;SDS011;2386;42.138;24.746;2023-06-24T14:07:34;812.33;;;741.53;;
4744;SDS011;2386;42.138;24.746;2023-06-24T14:13:21;804.47;;;733.57;;
4744;SDS011;2386;42.138;24.746;2023-06-24T14:15:47;780.23;;;710.03;;
4744;SDS011;2386;42.138;24.746;2023-06-24T14:18:13;796.30;;;725.40;;
4744;SDS011;2386;42.138;24.746;2023-06-24T14:20:39;798.53;;;727.60;;
4744;SDS011;2386;42.138;24.746;2023-06-24T14:23:04;790.43;;;719.97;;
4744;SDS011;2386;42.138;24.746;2023-06-24T14:25:30;777.13;;;707.27;;
4744;SDS011;2386;42.138;24.746;2023-06-24T14:27:56;791.70;;;720.80;;
4744;SDS011;2386;42.138;24.746;2023-06-24T14:30:21;778.90;;;709.10;;
4744;SDS011;2386;42.138;24.746;2023-06-24T14:32:47;768.23;;;698.47;;
4744;SDS011;2386;42.138;24.746;2023-06-24T14:35:12;793.20;;;722.63;;
4744;SDS011;2386;42.138;24.746;2023-06-24T14:37:38;780.00;;;708.93;;
4744;SDS011;2386;42.138;24.746;2023-06-24T14:43:24;769.63;;;699.00;;
4744;SDS011;2386;42.138;24.746;2023-06-24T14:45:50;769.57;;;699.13;;
4744;SDS011;2386;42.138;24.746;2023-06-24T14:48:15;758.50;;;687.90;;
4744;SDS011;2386;42.138;24.746;2023-06-24T14:50:41;770.40;;;699.83;;
4744;SDS011;2386;42.138;24.746;2023-06-24T14:53:06;777.50;;;706.03;;
4744;SDS011;2386;42.138;24.746;2023-06-24T14:55:31;755.37;;;684.97;;
4744;SDS011;2386;42.138;24.746;2023-06-24T14:57:57;772.13;;;701.27;;
4744;SDS011;2386;42.138;24.746;2023-06-24T15:00:22;775.97;;;704.80;;
4744;SDS011;2386;42.138;24.746;2023-06-24T15:02:48;760.33;;;689.83;;
4744;SDS011;2386;42.138;24.746;2023-06-24T15:05:13;758.97;;;688.50;;
4744;SDS011;2386;42.138;24.746;2023-06-24T15:07:39;761.67;;;691.17;;
4744;SDS011;2386;42.138;24.746;2023-06-24T15:10:04;766.20;;;695.40;;
4744;SDS011;2386;42.138;24.746;2023-06-24T15:12:30;754.00;;;683.47;;
4744;SDS011;2386;42.138;24.746;2023-06-24T15:14:56;752.27;;;681.17;;
4744;SDS011;2386;42.138;24.746;2023-06-24T15:17:21;737.20;;;666.77;;
4744;SDS011;2386;42.138;24.746;2023-06-24T15:19:47;743.70;;;673.40;;
4744;SDS011;2386;42.138;24.746;2023-06-24T15:22:13;758.03;;;687.27;;
4744;SDS011;2386;42.138;24.746;2023-06-24T15:24:38;758.83;;;687.97;;
4744;SDS011;2386;42.138;24.746;2023-06-24T15:27:04;749.60;;;679.10;;
4744;SDS011;2386;42.138;24.746;2023-06-24T15:29:29;752.90;;;682.13;;
4744;SDS011;2386;42.138;24.746;2023-06-24T15:31:55;742.37;;;671.77;;
4744;SDS011;2386;42.138;24.746;2023-06-24T15:34:20;750.30;;;679.60;;
4744;SDS011;2386;42.138;24.746;2023-06-24T15:36:45;748.77;;;678.37;;
4744;SDS011;2386;42.138;24.746;2023-06-24T15:39:11;727.50;;;657.63;;
4744;SDS011;2386;42.138;24.746;2023-06-24T15:41:37;730.03;;;660.20;;
4744;SDS011;2386;42.138;24.746;2023-06-24T15:44:06;739.50;;;669.30;;
4744;SDS011;2386;42.138;24.746;2023-06-24T15:46:32;739.63;;;669.30;;
4744;SDS011;2386;42.138;24.746;2023-06-24T15:48:57;751.87;;;681.23;;
4744;SDS011;2386;42.138;24.746;2023-06-24T15:51:22;744.30;;;673.73;;
4744;SDS011;2386;42.138;24.746;2023-06-24T15:53:48;742.70;;;672.50;;
4744;SDS011;2386;42.138;24.746;2023-06-24T15:56:13;743.90;;;673.60;;
4744;SDS011;2386;42.138;24.746;2023-06-24T15:58:39;726.60;;;656.70;;
4744;SDS011;2386;42.138;24.746;2023-06-24T16:01:05;733.87;;;663.67;;
4744;SDS011;2386;42.138;24.746;2023-06-24T16:03:30;725.73;;;655.40;;
4744;SDS011;2386;42.138;24.746;2023-06-24T16:05:55;737.87;;;667.57;;
4744;SDS011;2386;42.138;24.746;2023-06-24T16:08:21;738.53;;;668.37;;
4744;SDS011;2386;42.138;24.746;2023-06-24T16:10:46;736.20;;;666.13;;
4744;SDS011;2386;42.138;24.746;2023-06-24T16:13:12;745.63;;;675.13;;
4744;SDS011;2386;42.138;24.746;2023-06-24T16:15:38;739.90;;;669.30;;
4744;SDS011;2386;42.138;24.746;2023-06-24T16:18:03;750.07;;;679.53;;
4744;SDS011;2386;42.138;24.746;2023-06-24T16:20:29;728.40;;;658.30;;
4744;SDS011;2386;42.138;24.746;2023-06-24T16:22:54;740.90;;;670.20;;
4744;SDS011;2386;42.138;24.746;2023-06-24T16:25:20;731.80;;;660.93;;
4744;SDS011;2386;42.138;24.746;2023-06-24T16:27:45;732.20;;;661.90;;
4744;SDS011;2386;42.138;24.746;2023-06-24T16:30:10;729.83;;;659.27;;
4744;SDS011;2386;42.138;24.746;2023-06-24T16:32:36;734.13;;;663.67;;
4744;SDS011;2386;42.138;24.746;2023-06-24T16:35:01;730.80;;;660.20;;
4744;SDS011;2386;42.138;24.746;2023-06-24T16:37:27;717.63;;;647.67;;
4744;SDS011;2386;42.138;24.746;2023-06-24T16:39:52;738.70;;;667.90;;
4744;SDS011;2386;42.138;24.746;2023-06-24T16:42:18;709.30;;;639.30;;
4744;SDS011;2386;42.138;24.746;2023-06-24T16:44:43;736.83;;;666.07;;
4744;SDS011;2386;42.138;24.746;2023-06-24T16:47:11;724.40;;;654.13;;
4744;SDS011;2386;42.138;24.746;2023-06-24T16:52:59;704.27;;;634.37;;
4744;SDS011;2386;42.138;24.746;2023-06-24T16:55:24;701.03;;;631.43;;
4744;SDS011;2386;42.138;24.746;2023-06-24T16:57:50;685.67;;;616.67;;
4744;SDS011;2386;42.138;24.746;2023-06-24T17:00:15;707.30;;;637.33;;
4744;SDS011;2386;42.138;24.746;2023-06-24T17:02:41;710.93;;;640.03;;
4744;SDS011;2386;42.138;24.746;2023-06-24T17:05:09;691.63;;;621.53;;
4744;SDS011;2386;42.138;24.746;2023-06-24T17:07:34;696.80;;;626.93;;
4744;SDS011;2386;42.138;24.746;2023-06-24T17:10:00;691.63;;;622.27;;
4744;SDS011;2386;42.138;24.746;2023-06-24T17:12:25;683.70;;;614.33;;
4744;SDS011;2386;42.138;24.746;2023-06-24T17:14:51;683.23;;;613.20;;
4744;SDS011;2386;42.138;24.746;2023-06-24T17:17:16;681.33;;;611.87;;
4744;SDS011;2386;42.138;24.746;2023-06-24T17:19:42;685.30;;;615.70;;
4744;SDS011;2386;42.138;24.746;2023-06-24T17:22:07;682.80;;;612.87;;
4744;SDS011;2386;42.138;24.746;2023-06-24T17:24:36;665.67;;;595.97;;
4744;SDS011;2386;42.138;24.746;2023-06-24T17:27:19;666.63;;;596.87;;
4744;SDS011;2386;42.138;24.746;2023-06-24T17:29:56;668.93;;;599.70;;
4744;SDS011;2386;42.138;24.746;2023-06-24T17:32:22;681.37;;;611.40;;
4744;SDS011;2386;42.138;24.746;2023-06-24T17:34:48;664.07;;;594.03;;
4744;SDS011;2386;42.138;24.746;2023-06-24T17:37:14;654.60;;;585.20;;